Local Weather Ingen bokad jour idag Monday 11th of December
Flygplats METAR TAF
Airport METAR TAF
ESSL - Linköping112050Z 04007KT 2600 SN VV017 M00/M00 Q0993 RWY 29 DRY SNOW 51-100 PCT BA MEDIUM/GOOD= RRA 111730Z 1118/1122 04007KT 9999 FEW006 BKN040 PROB40 1118/1122 4000 -SN BKN006=
ESSP - Norrköping112050Z 05008KT 8000 -SN FEW010 BKN030 01/M00 Q0993 RWY 09 DAMP 51-100 PCT LESS THAN 1 MM BA GOOD= 112030Z 1121/1123 03009KT 9999 BKN035 BECMG 1121/1123 2000 -SN BKN008=
ESGJ - Jönköping112050Z 04009KT 3500 -SN SCT003 BKN007 M00/M00 Q0989 RWY 01 ICE 51-100 PCT 1 MM FCT 0.29= 112030Z 1121/1203 02009KT 7000 -SN BKN008 TEMPO 1121/1124 2000 SN VV004=
ESKN - Skavsta112050Z 03007KT 9999 BKN035 M00/M02 Q0993 RWY 26 ICE 0-10 PCT 1 MM FCT 0.42= RRA 111730Z 1118/1218 04007KT 9999 BKN025 BECMG 1121/1123 34010KT 4000 -SN BKN012 TEMPO 1123/1212 1000 SN VV004 BECMG 1216/1218 CAVOK=
ESSV - Visby112050Z AUTO 08009KT 9000 BR OVC006/// 02/01 Q0992 RESHUP REDZ= 112030Z 1121/1123 10008KT 6000 -RA BKN004 TEMPO 1121/1123 2500 RASN BKN015=
ESGG - Göteborg112050Z 03010KT 2000 SN VV004 M01/M01 Q0989 RWY 03 WET SNOW 51-100 PCT 3 MM FCT 0.28= AAA 111805Z 1118/1218 05007KT 9999 BKN006 PROB40 1118/1121 BKN016 BECMG 1119/1121 4000 -SN BKN013 TEMPO 1119/1205 0700 SN VV004 BECMG 1205/1208 CAVOK BECMG 1208/1210 35010KT BECMG 1211/1213 29010KT=
FLEET STATUS
Flygplan Tid till service Tid till flygstopp Flygtid Landningar
Aircraft Time to service Time to stop Total time Landings
SE-FCEN/AN/A4 846.5 h259 st.
SE-IUD31.0 h36.0 h11 019.0 h21 804 st.
SE-KIT-1.8 h3.2 h11 251.8 h21 384 st.
SE-KMH-2.5 h2.5 h15 452.5 h58 230 st.
SE-MEB18.6 h23.6 h1 131.4 h3 480 st.
SE-SIMN/AN/A1 192.2 h85 st.
NOTAM
ESSL/LINKOPING/SAAB
+ (SNOWTAM 0142 A)ESSL B)12110400 C)11 F)3/3/3 G)XX/XX/XX H)5/5/5 N)3/MED R)3/MED T)SFH BA 48/49/46) REPORTED: 11 DEC 2017 04:00 - AERODROME CONTROL TOWER (TWR) HOURS OF OPS/SERVICE MON-FRI 0445-2200 SAT 0445-0545 0945-1115 1715-1800 SUN 0445-0545 0945-1115 1545-1700 2100-2200 FROM: 30 OCT 2017 00:00 TO: 17 DEC 2017 23:59 ES/B2855/17
ESCF/LINKOPING/MALMEN
+ (SNOWTAM 0124 A)ESCF B)12110945 C)01 F)3/3/3 G)XX/XX/XX H)5/5/5 N)3/BA5 B)12110845 C)08 F)3/3/3 G)XX/XX/XX H)5/5/5 N)3/BA5 R)3/BA4) REPORTED: 11 DEC 2017 09:45 - PERM AIRAC AIP AMDT 7/17WEF 7 DEC 2017. RWY PCN AND REFF FROM: 07 DEC 2017 00:00 TO: 21 DEC 2017 23:59 ES/C1994/17
PPR
Ankomst Avgång Flygplan Namn Bränsle
Arrival Departure Aircraft Name Fuel